sensor_id;sensor_type;location;lat;lon;timestamp;P1;durP1;ratioP1;P2;durP2;ratioP2
45344;SDS011;31078;48.304;11.896;2022-10-22T00:02:21;3.85;;;1.70;;
45344;SDS011;31078;48.304;11.896;2022-10-22T00:04:48;3.65;;;1.52;;
45344;SDS011;31078;48.304;11.896;2022-10-22T00:07:18;4.70;;;1.63;;
45344;SDS011;31078;48.304;11.896;2022-10-22T00:09:46;3.63;;;1.30;;
45344;SDS011;31078;48.304;11.896;2022-10-22T00:12:13;2.65;;;1.75;;
45344;SDS011;31078;48.304;11.896;2022-10-22T00:14:40;4.47;;;1.63;;
45344;SDS011;31078;48.304;11.896;2022-10-22T00:17:08;6.18;;;1.80;;
45344;SDS011;31078;48.304;11.896;2022-10-22T00:19:35;3.53;;;1.65;;
45344;SDS011;31078;48.304;11.896;2022-10-22T00:22:02;5.05;;;1.75;;
45344;SDS011;31078;48.304;11.896;2022-10-22T00:24:31;3.15;;;1.58;;
45344;SDS011;31078;48.304;11.896;2022-10-22T00:26:58;3.10;;;1.42;;
45344;SDS011;31078;48.304;11.896;2022-10-22T00:29:24;3.22;;;1.90;;
45344;SDS011;31078;48.304;11.896;2022-10-22T00:31:51;4.65;;;1.77;;
45344;SDS011;31078;48.304;11.896;2022-10-22T00:34:18;4.05;;;2.10;;
45344;SDS011;31078;48.304;11.896;2022-10-22T00:36:46;4.43;;;1.90;;
45344;SDS011;31078;48.304;11.896;2022-10-22T00:39:13;4.03;;;1.98;;
45344;SDS011;31078;48.304;11.896;2022-10-22T00:41:42;4.28;;;2.17;;
45344;SDS011;31078;48.304;11.896;2022-10-22T00:47:08;5.25;;;2.25;;
45344;SDS011;31078;48.304;11.896;2022-10-22T00:49:35;2.85;;;1.90;;
45344;SDS011;31078;48.304;11.896;2022-10-22T00:52:02;4.22;;;2.33;;
45344;SDS011;31078;48.304;11.896;2022-10-22T00:54:28;2.88;;;1.90;;
45344;SDS011;31078;48.304;11.896;2022-10-22T00:56:56;4.35;;;2.08;;
45344;SDS011;31078;48.304;11.896;2022-10-22T00:59:23;3.22;;;2.10;;
45344;SDS011;31078;48.304;11.896;2022-10-22T01:01:49;6.55;;;1.90;;
45344;SDS011;31078;48.304;11.896;2022-10-22T01:04:17;5.15;;;2.25;;
45344;SDS011;31078;48.304;11.896;2022-10-22T01:06:44;2.65;;;1.70;;
45344;SDS011;31078;48.304;11.896;2022-10-22T01:09:14;5.72;;;1.83;;
45344;SDS011;31078;48.304;11.896;2022-10-22T01:11:50;3.63;;;1.88;;
45344;SDS011;31078;48.304;11.896;2022-10-22T01:14:28;7.40;;;2.30;;
45344;SDS011;31078;48.304;11.896;2022-10-22T01:17:00;3.35;;;1.80;;
45344;SDS011;31078;48.304;11.896;2022-10-22T01:19:44;4.53;;;2.08;;
45344;SDS011;31078;48.304;11.896;2022-10-22T01:22:23;4.90;;;2.10;;
45344;SDS011;31078;48.304;11.896;2022-10-22T01:24:56;3.20;;;1.90;;
45344;SDS011;31078;48.304;11.896;2022-10-22T01:27:38;5.82;;;1.88;;
45344;SDS011;31078;48.304;11.896;2022-10-22T01:30:15;5.47;;;2.08;;
45344;SDS011;31078;48.304;11.896;2022-10-22T01:32:45;2.67;;;1.85;;
45344;SDS011;31078;48.304;11.896;2022-10-22T01:35:15;4.78;;;2.00;;
45344;SDS011;31078;48.304;11.896;2022-10-22T01:37:45;5.05;;;2.08;;
45344;SDS011;31078;48.304;11.896;2022-10-22T01:40:14;3.88;;;2.05;;
45344;SDS011;31078;48.304;11.896;2022-10-22T01:42:42;3.30;;;2.17;;
45344;SDS011;31078;48.304;11.896;2022-10-22T01:45:21;5.03;;;2.30;;
45344;SDS011;31078;48.304;11.896;2022-10-22T01:47:57;5.15;;;2.20;;
45344;SDS011;31078;48.304;11.896;2022-10-22T01:50:34;7.68;;;2.25;;
45344;SDS011;31078;48.304;11.896;2022-10-22T01:53:12;5.18;;;2.58;;
45344;SDS011;31078;48.304;11.896;2022-10-22T01:55:51;5.10;;;2.30;;
45344;SDS011;31078;48.304;11.896;2022-10-22T01:58:33;9.15;;;2.03;;
45344;SDS011;31078;48.304;11.896;2022-10-22T02:01:11;3.97;;;2.15;;
45344;SDS011;31078;48.304;11.896;2022-10-22T02:03:44;5.20;;;2.30;;
45344;SDS011;31078;48.304;11.896;2022-10-22T02:06:16;3.70;;;2.00;;
45344;SDS011;31078;48.304;11.896;2022-10-22T02:08:45;3.47;;;2.05;;
45344;SDS011;31078;48.304;11.896;2022-10-22T02:11:13;7.18;;;2.42;;
45344;SDS011;31078;48.304;11.896;2022-10-22T02:13:41;4.60;;;2.65;;
45344;SDS011;31078;48.304;11.896;2022-10-22T02:16:14;5.35;;;2.53;;
45344;SDS011;31078;48.304;11.896;2022-10-22T02:18:44;5.20;;;2.30;;
45344;SDS011;31078;48.304;11.896;2022-10-22T02:21:12;5.78;;;2.63;;
45344;SDS011;31078;48.304;11.896;2022-10-22T02:23:40;9.32;;;2.45;;
45344;SDS011;31078;48.304;11.896;2022-10-22T02:26:08;4.40;;;2.20;;
45344;SDS011;31078;48.304;11.896;2022-10-22T02:28:41;7.07;;;2.33;;
45344;SDS011;31078;48.304;11.896;2022-10-22T02:31:17;5.65;;;2.22;;
45344;SDS011;31078;48.304;11.896;2022-10-22T02:33:47;4.75;;;2.05;;
45344;SDS011;31078;48.304;11.896;2022-10-22T02:36:18;6.28;;;2.47;;
45344;SDS011;31078;48.304;11.896;2022-10-22T02:38:46;5.65;;;2.40;;
45344;SDS011;31078;48.304;11.896;2022-10-22T02:41:16;6.70;;;2.38;;
45344;SDS011;31078;48.304;11.896;2022-10-22T02:43:44;6.22;;;2.55;;
45344;SDS011;31078;48.304;11.896;2022-10-22T02:46:16;5.05;;;2.22;;
45344;SDS011;31078;48.304;11.896;2022-10-22T02:48:43;6.78;;;2.50;;
45344;SDS011;31078;48.304;11.896;2022-10-22T02:51:09;6.63;;;2.10;;
45344;SDS011;31078;48.304;11.896;2022-10-22T02:53:36;6.07;;;2.53;;
45344;SDS011;31078;48.304;11.896;2022-10-22T02:56:03;6.30;;;2.83;;
45344;SDS011;31078;48.304;11.896;2022-10-22T02:58:29;10.05;;;2.88;;
45344;SDS011;31078;48.304;11.896;2022-10-22T03:00:56;6.55;;;2.83;;
45344;SDS011;31078;48.304;11.896;2022-10-22T03:03:24;8.02;;;2.58;;
45344;SDS011;31078;48.304;11.896;2022-10-22T03:05:50;3.97;;;2.33;;
45344;SDS011;31078;48.304;11.896;2022-10-22T03:08:17;7.78;;;2.97;;
45344;SDS011;31078;48.304;11.896;2022-10-22T03:10:44;4.60;;;2.55;;
45344;SDS011;31078;48.304;11.896;2022-10-22T03:13:10;6.30;;;2.38;;
45344;SDS011;31078;48.304;11.896;2022-10-22T03:15:37;7.25;;;2.35;;
45344;SDS011;31078;48.304;11.896;2022-10-22T03:18:03;6.22;;;2.55;;
45344;SDS011;31078;48.304;11.896;2022-10-22T03:20:31;4.78;;;2.20;;
45344;SDS011;31078;48.304;11.896;2022-10-22T03:22:58;5.28;;;2.00;;
45344;SDS011;31078;48.304;11.896;2022-10-22T03:25:26;6.03;;;2.10;;
45344;SDS011;31078;48.304;11.896;2022-10-22T03:27:55;6.57;;;2.10;;
45344;SDS011;31078;48.304;11.896;2022-10-22T03:30:28;3.90;;;2.20;;
45344;SDS011;31078;48.304;11.896;2022-10-22T03:32:54;4.07;;;2.33;;
45344;SDS011;31078;48.304;11.896;2022-10-22T03:35:21;4.38;;;2.20;;
45344;SDS011;31078;48.304;11.896;2022-10-22T03:37:49;4.60;;;2.10;;
45344;SDS011;31078;48.304;11.896;2022-10-22T03:40:16;7.07;;;2.10;;
45344;SDS011;31078;48.304;11.896;2022-10-22T03:42:44;5.80;;;2.40;;
45344;SDS011;31078;48.304;11.896;2022-10-22T03:45:10;3.80;;;2.40;;
45344;SDS011;31078;48.304;11.896;2022-10-22T03:47:37;5.15;;;2.03;;
45344;SDS011;31078;48.304;11.896;2022-10-22T03:50:04;5.22;;;2.50;;
45344;SDS011;31078;48.304;11.896;2022-10-22T03:52:34;6.55;;;2.22;;
45344;SDS011;31078;48.304;11.896;2022-10-22T03:55:03;5.15;;;2.00;;
45344;SDS011;31078;48.304;11.896;2022-10-22T03:57:31;3.33;;;1.92;;
45344;SDS011;31078;48.304;11.896;2022-10-22T03:59:57;5.57;;;1.98;;
45344;SDS011;31078;48.304;11.896;2022-10-22T04:02:24;4.90;;;2.10;;
45344;SDS011;31078;48.304;11.896;2022-10-22T04:04:50;5.72;;;2.00;;
45344;SDS011;31078;48.304;11.896;2022-10-22T04:07:17;3.38;;;1.88;;
45344;SDS011;31078;48.304;11.896;2022-10-22T04:09:44;3.15;;;1.83;;
45344;SDS011;31078;48.304;11.896;2022-10-22T04:12:12;5.70;;;2.08;;
45344;SDS011;31078;48.304;11.896;2022-10-22T04:14:38;5.13;;;1.95;;
45344;SDS011;31078;48.304;11.896;2022-10-22T04:17:05;6.63;;;2.22;;
45344;SDS011;31078;48.304;11.896;2022-10-22T04:19:31;4.00;;;2.33;;
45344;SDS011;31078;48.304;11.896;2022-10-22T04:21:58;2.53;;;1.90;;
45344;SDS011;31078;48.304;11.896;2022-10-22T04:24:25;4.72;;;2.10;;
45344;SDS011;31078;48.304;11.896;2022-10-22T04:26:52;3.95;;;2.10;;
45344;SDS011;31078;48.304;11.896;2022-10-22T04:29:21;7.13;;;2.30;;
45344;SDS011;31078;48.304;11.896;2022-10-22T04:31:47;5.03;;;2.20;;
45344;SDS011;31078;48.304;11.896;2022-10-22T04:34:14;4.47;;;2.47;;
45344;SDS011;31078;48.304;11.896;2022-10-22T04:36:40;4.95;;;2.20;;
45344;SDS011;31078;48.304;11.896;2022-10-22T04:39:07;2.45;;;1.75;;
45344;SDS011;31078;48.304;11.896;2022-10-22T04:41:34;6.82;;;2.15;;
45344;SDS011;31078;48.304;11.896;2022-10-22T04:44:02;3.42;;;1.70;;
45344;SDS011;31078;48.304;11.896;2022-10-22T04:46:31;7.57;;;1.92;;
45344;SDS011;31078;48.304;11.896;2022-10-22T04:48:59;2.95;;;1.90;;
45344;SDS011;31078;48.304;11.896;2022-10-22T04:51:27;2.53;;;1.63;;
45344;SDS011;31078;48.304;11.896;2022-10-22T04:53:54;5.60;;;2.00;;
45344;SDS011;31078;48.304;11.896;2022-10-22T04:56:22;7.25;;;2.70;;
45344;SDS011;31078;48.304;11.896;2022-10-22T04:58:52;4.20;;;1.60;;
45344;SDS011;31078;48.304;11.896;2022-10-22T05:01:20;4.13;;;1.50;;
45344;SDS011;31078;48.304;11.896;2022-10-22T05:03:50;3.42;;;1.40;;
45344;SDS011;31078;48.304;11.896;2022-10-22T05:06:18;2.95;;;1.48;;
45344;SDS011;31078;48.304;11.896;2022-10-22T05:08:45;4.40;;;1.25;;
45344;SDS011;31078;48.304;11.896;2022-10-22T05:11:13;3.75;;;1.50;;
45344;SDS011;31078;48.304;11.896;2022-10-22T05:13:41;3.10;;;1.30;;
45344;SDS011;31078;48.304;11.896;2022-10-22T05:16:08;4.03;;;1.50;;
45344;SDS011;31078;48.304;11.896;2022-10-22T05:18:35;5.05;;;1.35;;
45344;SDS011;31078;48.304;11.896;2022-10-22T05:21:06;2.75;;;1.30;;
45344;SDS011;31078;48.304;11.896;2022-10-22T05:23:34;2.97;;;1.25;;
45344;SDS011;31078;48.304;11.896;2022-10-22T05:26:00;2.90;;;1.45;;
45344;SDS011;31078;48.304;11.896;2022-10-22T05:28:28;4.05;;;1.77;;
45344;SDS011;31078;48.304;11.896;2022-10-22T05:30:55;1.65;;;1.27;;
45344;SDS011;31078;48.304;11.896;2022-10-22T05:33:23;2.55;;;1.48;;
45344;SDS011;31078;48.304;11.896;2022-10-22T05:35:50;3.65;;;1.52;;
45344;SDS011;31078;48.304;11.896;2022-10-22T05:38:18;5.43;;;1.35;;
45344;SDS011;31078;48.304;11.896;2022-10-22T05:40:45;3.83;;;1.17;;
45344;SDS011;31078;48.304;11.896;2022-10-22T05:43:11;3.58;;;1.30;;
45344;SDS011;31078;48.304;11.896;2022-10-22T05:45:38;5.40;;;1.35;;
45344;SDS011;31078;48.304;11.896;2022-10-22T05:48:06;2.33;;;1.40;;
45344;SDS011;31078;48.304;11.896;2022-10-22T05:50:34;1.83;;;1.20;;
45344;SDS011;31078;48.304;11.896;2022-10-22T05:53:01;4.68;;;1.50;;
45344;SDS011;31078;48.304;11.896;2022-10-22T05:55:29;1.75;;;1.20;;
45344;SDS011;31078;48.304;11.896;2022-10-22T05:58:00;1.88;;;1.15;;
45344;SDS011;31078;48.304;11.896;2022-10-22T06:00:27;1.77;;;1.00;;
45344;SDS011;31078;48.304;11.896;2022-10-22T06:02:54;2.17;;;1.13;;
45344;SDS011;31078;48.304;11.896;2022-10-22T06:05:20;2.15;;;1.10;;
45344;SDS011;31078;48.304;11.896;2022-10-22T06:07:47;3.35;;;1.20;;
45344;SDS011;31078;48.304;11.896;2022-10-22T06:10:14;3.15;;;1.40;;
45344;SDS011;31078;48.304;11.896;2022-10-22T06:12:44;1.90;;;1.15;;
45344;SDS011;31078;48.304;11.896;2022-10-22T06:15:13;2.63;;;1.90;;
45344;SDS011;31078;48.304;11.896;2022-10-22T06:17:42;4.05;;;2.95;;
45344;SDS011;31078;48.304;11.896;2022-10-22T06:20:10;4.22;;;2.70;;
45344;SDS011;31078;48.304;11.896;2022-10-22T06:22:37;2.38;;;1.83;;
45344;SDS011;31078;48.304;11.896;2022-10-22T06:25:04;2.60;;;1.75;;
45344;SDS011;31078;48.304;11.896;2022-10-22T06:27:32;2.92;;;2.00;;
45344;SDS011;31078;48.304;11.896;2022-10-22T06:30:00;5.97;;;2.97;;
45344;SDS011;31078;48.304;11.896;2022-10-22T06:32:27;4.25;;;2.20;;
45344;SDS011;31078;48.304;11.896;2022-10-22T06:34:53;3.80;;;1.50;;
45344;SDS011;31078;48.304;11.896;2022-10-22T06:37:20;2.10;;;1.33;;
45344;SDS011;31078;48.304;11.896;2022-10-22T06:39:47;4.55;;;1.10;;
45344;SDS011;31078;48.304;11.896;2022-10-22T06:42:13;2.10;;;0.90;;
45344;SDS011;31078;48.304;11.896;2022-10-22T06:44:40;1.48;;;1.00;;
45344;SDS011;31078;48.304;11.896;2022-10-22T06:47:08;1.92;;;1.00;;
45344;SDS011;31078;48.304;11.896;2022-10-22T06:49:34;4.85;;;1.95;;
45344;SDS011;31078;48.304;11.896;2022-10-22T06:52:01;3.33;;;1.42;;
45344;SDS011;31078;48.304;11.896;2022-10-22T06:54:27;4.32;;;1.75;;
45344;SDS011;31078;48.304;11.896;2022-10-22T06:56:54;4.10;;;1.50;;
45344;SDS011;31078;48.304;11.896;2022-10-22T06:59:20;4.18;;;1.42;;
45344;SDS011;31078;48.304;11.896;2022-10-22T07:01:47;2.70;;;1.55;;
45344;SDS011;31078;48.304;11.896;2022-10-22T07:04:15;2.83;;;1.40;;
45344;SDS011;31078;48.304;11.896;2022-10-22T07:06:42;3.63;;;1.40;;
45344;SDS011;31078;48.304;11.896;2022-10-22T07:09:08;3.40;;;1.30;;
45344;SDS011;31078;48.304;11.896;2022-10-22T07:11:37;4.03;;;2.03;;
45344;SDS011;31078;48.304;11.896;2022-10-22T07:14:05;3.22;;;1.70;;
45344;SDS011;31078;48.304;11.896;2022-10-22T07:16:32;3.72;;;1.80;;
45344;SDS011;31078;48.304;11.896;2022-10-22T07:18:59;2.80;;;1.33;;
45344;SDS011;31078;48.304;11.896;2022-10-22T07:21:27;2.55;;;1.30;;
45344;SDS011;31078;48.304;11.896;2022-10-22T07:23:54;3.45;;;2.00;;
45344;SDS011;31078;48.304;11.896;2022-10-22T07:26:22;2.97;;;1.88;;
45344;SDS011;31078;48.304;11.896;2022-10-22T07:28:49;5.38;;;1.80;;
45344;SDS011;31078;48.304;11.896;2022-10-22T07:31:17;2.00;;;1.45;;
45344;SDS011;31078;48.304;11.896;2022-10-22T07:33:44;1.65;;;1.20;;
45344;SDS011;31078;48.304;11.896;2022-10-22T07:36:12;2.05;;;1.27;;
45344;SDS011;31078;48.304;11.896;2022-10-22T07:38:43;3.17;;;2.10;;
45344;SDS011;31078;48.304;11.896;2022-10-22T07:41:10;3.38;;;2.10;;
45344;SDS011;31078;48.304;11.896;2022-10-22T07:43:37;3.05;;;1.55;;
45344;SDS011;31078;48.304;11.896;2022-10-22T07:46:03;2.30;;;1.27;;
45344;SDS011;31078;48.304;11.896;2022-10-22T07:48:32;1.77;;;1.00;;
45344;SDS011;31078;48.304;11.896;2022-10-22T07:50:59;1.67;;;1.02;;
45344;SDS011;31078;48.304;11.896;2022-10-22T07:53:25;4.03;;;1.17;;
45344;SDS011;31078;48.304;11.896;2022-10-22T07:55:53;3.03;;;1.10;;
45344;SDS011;31078;48.304;11.896;2022-10-22T07:58:21;5.10;;;1.40;;
45344;SDS011;31078;48.304;11.896;2022-10-22T08:00:48;2.53;;;1.60;;
45344;SDS011;31078;48.304;11.896;2022-10-22T08:03:15;3.30;;;1.60;;
45344;SDS011;31078;48.304;11.896;2022-10-22T08:05:43;4.60;;;2.30;;
45344;SDS011;31078;48.304;11.896;2022-10-22T08:08:10;4.43;;;1.65;;
45344;SDS011;31078;48.304;11.896;2022-10-22T08:10:37;2.38;;;1.60;;
45344;SDS011;31078;48.304;11.896;2022-10-22T08:13:05;2.95;;;1.45;;
45344;SDS011;31078;48.304;11.896;2022-10-22T08:15:32;2.78;;;1.60;;
45344;SDS011;31078;48.304;11.896;2022-10-22T08:17:59;2.72;;;1.30;;
45344;SDS011;31078;48.304;11.896;2022-10-22T08:20:26;2.78;;;1.10;;
45344;SDS011;31078;48.304;11.896;2022-10-22T08:22:53;3.72;;;0.70;;
45344;SDS011;31078;48.304;11.896;2022-10-22T08:25:19;4.22;;;0.90;;
45344;SDS011;31078;48.304;11.896;2022-10-22T08:27:46;1.63;;;0.77;;
45344;SDS011;31078;48.304;11.896;2022-10-22T08:30:14;2.83;;;1.17;;
45344;SDS011;31078;48.304;11.896;2022-10-22T08:32:40;1.75;;;0.75;;
45344;SDS011;31078;48.304;11.896;2022-10-22T08:35:07;1.70;;;0.90;;
45344;SDS011;31078;48.304;11.896;2022-10-22T08:37:34;1.75;;;0.90;;
45344;SDS011;31078;48.304;11.896;2022-10-22T08:40:01;1.80;;;0.90;;
45344;SDS011;31078;48.304;11.896;2022-10-22T08:42:33;1.55;;;0.80;;
45344;SDS011;31078;48.304;11.896;2022-10-22T08:45:18;9.13;;;2.40;;
45344;SDS011;31078;48.304;11.896;2022-10-22T08:47:57;2.97;;;1.52;;
45344;SDS011;31078;48.304;11.896;2022-10-22T08:50:33;2.63;;;1.60;;
45344;SDS011;31078;48.304;11.896;2022-10-22T08:53:02;3.95;;;2.40;;
45344;SDS011;31078;48.304;11.896;2022-10-22T08:55:31;3.67;;;1.10;;
45344;SDS011;31078;48.304;11.896;2022-10-22T08:58:02;2.88;;;1.50;;
45344;SDS011;31078;48.304;11.896;2022-10-22T09:00:42;2.97;;;1.13;;
45344;SDS011;31078;48.304;11.896;2022-10-22T09:03:21;2.38;;;1.30;;
45344;SDS011;31078;48.304;11.896;2022-10-22T09:05:58;2.63;;;1.13;;
45344;SDS011;31078;48.304;11.896;2022-10-22T09:08:29;3.03;;;1.37;;
45344;SDS011;31078;48.304;11.896;2022-10-22T09:10:57;2.90;;;0.98;;
45344;SDS011;31078;48.304;11.896;2022-10-22T09:13:28;1.25;;;0.90;;
45344;SDS011;31078;48.304;11.896;2022-10-22T09:15:58;4.57;;;1.10;;
45344;SDS011;31078;48.304;11.896;2022-10-22T09:18:32;3.72;;;1.23;;
45344;SDS011;31078;48.304;11.896;2022-10-22T09:21:11;2.55;;;1.20;;
45344;SDS011;31078;48.304;11.896;2022-10-22T09:23:49;3.25;;;1.00;;
45344;SDS011;31078;48.304;11.896;2022-10-22T09:26:24;3.65;;;1.30;;
45344;SDS011;31078;48.304;11.896;2022-10-22T09:28:51;3.28;;;0.90;;
45344;SDS011;31078;48.304;11.896;2022-10-22T09:31:19;3.00;;;1.10;;
45344;SDS011;31078;48.304;11.896;2022-10-22T09:33:46;1.92;;;0.90;;
45344;SDS011;31078;48.304;11.896;2022-10-22T09:36:17;1.85;;;0.82;;
45344;SDS011;31078;48.304;11.896;2022-10-22T09:38:47;1.67;;;0.82;;
45344;SDS011;31078;48.304;11.896;2022-10-22T09:41:15;3.72;;;1.00;;
45344;SDS011;31078;48.304;11.896;2022-10-22T09:43:45;2.33;;;0.80;;
45344;SDS011;31078;48.304;11.896;2022-10-22T09:46:14;1.90;;;1.10;;
45344;SDS011;31078;48.304;11.896;2022-10-22T09:48:46;2.53;;;1.00;;
45344;SDS011;31078;48.304;11.896;2022-10-22T09:51:18;3.22;;;1.05;;
45344;SDS011;31078;48.304;11.896;2022-10-22T09:53:46;1.40;;;0.90;;
45344;SDS011;31078;48.304;11.896;2022-10-22T09:56:22;3.35;;;1.10;;
45344;SDS011;31078;48.304;11.896;2022-10-22T09:58:51;4.57;;;1.10;;
45344;SDS011;31078;48.304;11.896;2022-10-22T10:01:25;1.80;;;1.20;;
45344;SDS011;31078;48.304;11.896;2022-10-22T10:03:55;2.58;;;1.20;;
45344;SDS011;31078;48.304;11.896;2022-10-22T10:06:29;1.55;;;0.93;;
45344;SDS011;31078;48.304;11.896;2022-10-22T10:08:58;2.47;;;1.23;;
45344;SDS011;31078;48.304;11.896;2022-10-22T10:11:27;1.77;;;1.00;;
45344;SDS011;31078;48.304;11.896;2022-10-22T10:14:00;2.15;;;0.75;;
45344;SDS011;31078;48.304;11.896;2022-10-22T10:16:37;1.70;;;0.98;;
45344;SDS011;31078;48.304;11.896;2022-10-22T10:19:24;1.92;;;0.80;;
45344;SDS011;31078;48.304;11.896;2022-10-22T10:22:01;3.20;;;0.80;;
45344;SDS011;31078;48.304;11.896;2022-10-22T10:24:39;1.60;;;0.90;;
45344;SDS011;31078;48.304;11.896;2022-10-22T10:27:19;6.72;;;1.00;;
45344;SDS011;31078;48.304;11.896;2022-10-22T10:29:54;1.95;;;0.85;;
45344;SDS011;31078;48.304;11.896;2022-10-22T10:32:30;1.92;;;0.80;;
45344;SDS011;31078;48.304;11.896;2022-10-22T10:35:14;4.13;;;1.00;;
45344;SDS011;31078;48.304;11.896;2022-10-22T10:37:48;2.00;;;0.90;;
45344;SDS011;31078;48.304;11.896;2022-10-22T10:40:27;1.70;;;0.90;;
45344;SDS011;31078;48.304;11.896;2022-10-22T10:42:59;2.47;;;0.90;;
45344;SDS011;31078;48.304;11.896;2022-10-22T10:45:34;2.40;;;0.95;;
45344;SDS011;31078;48.304;11.896;2022-10-22T10:48:18;1.75;;;0.95;;
45344;SDS011;31078;48.304;11.896;2022-10-22T10:50:58;1.20;;;0.70;;
45344;SDS011;31078;48.304;11.896;2022-10-22T10:53:35;4.95;;;0.88;;
45344;SDS011;31078;48.304;11.896;2022-10-22T10:56:17;2.65;;;0.55;;
45344;SDS011;31078;48.304;11.896;2022-10-22T10:58:58;2.45;;;0.77;;
45344;SDS011;31078;48.304;11.896;2022-10-22T11:01:34;3.38;;;0.80;;
45344;SDS011;31078;48.304;11.896;2022-10-22T11:07:24;2.50;;;0.80;;
45344;SDS011;31078;48.304;11.896;2022-10-22T11:09:58;1.65;;;0.80;;
45344;SDS011;31078;48.304;11.896;2022-10-22T11:12:28;1.55;;;0.73;;
45344;SDS011;31078;48.304;11.896;2022-10-22T11:15:00;1.20;;;0.77;;
45344;SDS011;31078;48.304;11.896;2022-10-22T11:17:34;1.95;;;0.85;;
45344;SDS011;31078;48.304;11.896;2022-10-22T11:20:06;1.70;;;0.88;;
45344;SDS011;31078;48.304;11.896;2022-10-22T11:22:44;3.45;;;0.98;;
45344;SDS011;31078;48.304;11.896;2022-10-22T11:25:16;2.15;;;1.20;;
45344;SDS011;31078;48.304;11.896;2022-10-22T11:27:47;2.40;;;0.90;;
45344;SDS011;31078;48.304;11.896;2022-10-22T11:30:19;1.88;;;0.88;;
45344;SDS011;31078;48.304;11.896;2022-10-22T11:32:48;1.42;;;0.98;;
45344;SDS011;31078;48.304;11.896;2022-10-22T11:35:19;0.93;;;0.73;;
45344;SDS011;31078;48.304;11.896;2022-10-22T11:37:49;1.88;;;0.90;;
45344;SDS011;31078;48.304;11.896;2022-10-22T11:40:18;3.08;;;1.00;;
45344;SDS011;31078;48.304;11.896;2022-10-22T11:42:47;2.10;;;0.80;;
45344;SDS011;31078;48.304;11.896;2022-10-22T11:48:11;2.38;;;1.13;;
45344;SDS011;31078;48.304;11.896;2022-10-22T11:50:45;1.80;;;0.90;;
45344;SDS011;31078;48.304;11.896;2022-10-22T11:53:20;1.50;;;0.77;;
45344;SDS011;31078;48.304;11.896;2022-10-22T11:55:56;2.30;;;1.00;;
45344;SDS011;31078;48.304;11.896;2022-10-22T11:58:28;2.30;;;1.20;;
45344;SDS011;31078;48.304;11.896;2022-10-22T12:01:16;1.27;;;1.00;;
45344;SDS011;31078;48.304;11.896;2022-10-22T12:06:53;2.10;;;0.75;;
45344;SDS011;31078;48.304;11.896;2022-10-22T12:09:23;1.30;;;0.70;;
45344;SDS011;31078;48.304;11.896;2022-10-22T12:11:54;3.50;;;1.60;;
45344;SDS011;31078;48.304;11.896;2022-10-22T12:14:30;4.68;;;1.10;;
45344;SDS011;31078;48.304;11.896;2022-10-22T12:17:01;4.57;;;1.25;;
45344;SDS011;31078;48.304;11.896;2022-10-22T12:19:31;3.75;;;1.17;;
45344;SDS011;31078;48.304;11.896;2022-10-22T12:22:06;1.05;;;0.70;;
45344;SDS011;31078;48.304;11.896;2022-10-22T12:24:42;2.33;;;0.68;;
45344;SDS011;31078;48.304;11.896;2022-10-22T12:27:14;2.13;;;0.90;;
45344;SDS011;31078;48.304;11.896;2022-10-22T12:29:43;1.83;;;0.80;;
45344;SDS011;31078;48.304;11.896;2022-10-22T12:32:10;5.75;;;0.90;;
45344;SDS011;31078;48.304;11.896;2022-10-22T12:34:44;1.73;;;0.60;;
45344;SDS011;31078;48.304;11.896;2022-10-22T12:37:11;1.52;;;0.75;;
45344;SDS011;31078;48.304;11.896;2022-10-22T12:39:41;1.30;;;0.88;;
45344;SDS011;31078;48.304;11.896;2022-10-22T12:42:11;5.18;;;3.58;;
45344;SDS011;31078;48.304;11.896;2022-10-22T12:44:39;2.30;;;0.60;;
45344;SDS011;31078;48.304;11.896;2022-10-22T12:47:06;1.88;;;0.70;;
45344;SDS011;31078;48.304;11.896;2022-10-22T12:49:40;0.75;;;0.70;;
45344;SDS011;31078;48.304;11.896;2022-10-22T12:52:11;3.08;;;0.70;;
45344;SDS011;31078;48.304;11.896;2022-10-22T12:54:43;1.98;;;0.82;;
45344;SDS011;31078;48.304;11.896;2022-10-22T12:57:12;1.52;;;0.77;;
45344;SDS011;31078;48.304;11.896;2022-10-22T12:59:43;3.08;;;0.90;;
45344;SDS011;31078;48.304;11.896;2022-10-22T13:02:14;1.75;;;0.70;;
45344;SDS011;31078;48.304;11.896;2022-10-22T13:07:40;2.88;;;1.13;;
45344;SDS011;31078;48.304;11.896;2022-10-22T13:10:16;1.92;;;0.90;;
45344;SDS011;31078;48.304;11.896;2022-10-22T13:12:48;5.85;;;0.95;;
45344;SDS011;31078;48.304;11.896;2022-10-22T13:15:20;2.55;;;1.13;;
45344;SDS011;31078;48.304;11.896;2022-10-22T13:18:00;3.47;;;1.20;;
45344;SDS011;31078;48.304;11.896;2022-10-22T13:20:28;1.20;;;0.80;;
45344;SDS011;31078;48.304;11.896;2022-10-22T13:22:58;1.77;;;1.05;;
45344;SDS011;31078;48.304;11.896;2022-10-22T13:25:30;2.97;;;1.10;;
45344;SDS011;31078;48.304;11.896;2022-10-22T13:27:58;3.03;;;0.70;;
45344;SDS011;31078;48.304;11.896;2022-10-22T13:30:29;1.13;;;0.57;;
45344;SDS011;31078;48.304;11.896;2022-10-22T13:32:58;1.55;;;0.65;;
45344;SDS011;31078;48.304;11.896;2022-10-22T13:35:27;1.63;;;0.82;;
45344;SDS011;31078;48.304;11.896;2022-10-22T13:37:56;1.80;;;0.65;;
45344;SDS011;31078;48.304;11.896;2022-10-22T13:40:23;3.97;;;0.77;;
45344;SDS011;31078;48.304;11.896;2022-10-22T13:42:52;3.00;;;0.80;;
45344;SDS011;31078;48.304;11.896;2022-10-22T13:45:19;3.38;;;0.80;;
45344;SDS011;31078;48.304;11.896;2022-10-22T13:47:47;1.50;;;0.68;;
45344;SDS011;31078;48.304;11.896;2022-10-22T13:50:17;3.80;;;0.93;;
45344;SDS011;31078;48.304;11.896;2022-10-22T13:52:46;2.13;;;0.57;;
45344;SDS011;31078;48.304;11.896;2022-10-22T13:55:18;2.40;;;0.80;;
45344;SDS011;31078;48.304;11.896;2022-10-22T13:57:46;2.00;;;0.90;;
45344;SDS011;31078;48.304;11.896;2022-10-22T14:00:15;2.47;;;0.95;;
45344;SDS011;31078;48.304;11.896;2022-10-22T14:02:44;1.52;;;0.65;;
45344;SDS011;31078;48.304;11.896;2022-10-22T14:05:12;2.70;;;0.80;;
45344;SDS011;31078;48.304;11.896;2022-10-22T14:07:40;6.95;;;1.88;;
45344;SDS011;31078;48.304;11.896;2022-10-22T14:10:13;2.20;;;1.40;;
45344;SDS011;31078;48.304;11.896;2022-10-22T14:12:41;2.25;;;1.05;;
45344;SDS011;31078;48.304;11.896;2022-10-22T14:15:12;1.88;;;1.00;;
45344;SDS011;31078;48.304;11.896;2022-10-22T14:17:43;1.65;;;0.93;;
45344;SDS011;31078;48.304;11.896;2022-10-22T14:20:14;1.58;;;0.90;;
45344;SDS011;31078;48.304;11.896;2022-10-22T14:22:43;1.55;;;1.10;;
45344;SDS011;31078;48.304;11.896;2022-10-22T14:25:11;2.97;;;1.20;;
45344;SDS011;31078;48.304;11.896;2022-10-22T14:27:40;5.32;;;1.08;;
45344;SDS011;31078;48.304;11.896;2022-10-22T14:30:12;2.38;;;1.00;;
45344;SDS011;31078;48.304;11.896;2022-10-22T14:32:41;3.83;;;0.90;;
45344;SDS011;31078;48.304;11.896;2022-10-22T14:35:09;2.08;;;0.80;;
45344;SDS011;31078;48.304;11.896;2022-10-22T14:37:37;5.18;;;1.33;;
45344;SDS011;31078;48.304;11.896;2022-10-22T14:40:04;3.25;;;1.10;;
45344;SDS011;31078;48.304;11.896;2022-10-22T14:42:33;1.17;;;0.70;;
45344;SDS011;31078;48.304;11.896;2022-10-22T14:45:06;3.53;;;1.10;;
45344;SDS011;31078;48.304;11.896;2022-10-22T14:47:38;1.90;;;0.85;;
45344;SDS011;31078;48.304;11.896;2022-10-22T14:50:07;1.60;;;0.70;;
45344;SDS011;31078;48.304;11.896;2022-10-22T14:52:34;3.08;;;0.80;;
45344;SDS011;31078;48.304;11.896;2022-10-22T14:55:00;2.33;;;0.77;;
45344;SDS011;31078;48.304;11.896;2022-10-22T14:57:27;1.75;;;1.02;;
45344;SDS011;31078;48.304;11.896;2022-10-22T14:59:54;1.40;;;0.70;;
45344;SDS011;31078;48.304;11.896;2022-10-22T15:02:20;2.70;;;1.00;;
45344;SDS011;31078;48.304;11.896;2022-10-22T15:04:47;3.60;;;1.13;;